Time;durP1;ratioP1;P1;durP2;ratioP2;P2;SDS_P1;SDS_P2;PMS_P1;PMS_P2;Temp;Humidity;BMP_temperature;BMP_pressure;BME280_temperature;BME280_humidity;BME280_pressure;Samples;Min_cycle;Max_cycle;Signal;HPM_P1;HPM_P2
2023/10/11 00:01:06;;;;;;;7.13;3.20;;;;;;;16.68;100.00;100758.91;6126696;28;20040;-64
2023/10/11 00:04:03;;;;;;;9.47;3.20;;;;;;;16.60;100.00;100754.44;6127212;28;20041;-65
2023/10/11 00:06:58;;;;;;;7.60;2.88;;;;;;;16.64;100.00;100747.72;6131330;28;20483;-66
2023/10/11 00:09:54;;;;;;;9.73;3.43;;;;;;;16.56;100.00;100750.47;6128194;28;20059;-65
2023/10/11 00:12:58;;;;;;;12.07;3.53;;;;;;;16.67;100.00;100755.38;6131041;28;20066;-65
2023/10/11 00:15:53;;;;;;;8.48;3.08;;;;;;;16.62;100.00;100739.03;6136284;28;20036;-64
2023/10/11 00:18:51;;;;;;;13.50;4.57;;;;;;;16.63;100.00;100735.34;6131617;28;20032;-65
2023/10/11 00:21:46;;;;;;;9.07;3.38;;;;;;;16.69;100.00;100749.81;6136060;28;20174;-65
2023/10/11 00:24:42;;;;;;;7.00;2.78;;;;;;;16.65;100.00;100721.78;6132392;28;20036;-64
2023/10/11 00:27:37;;;;;;;9.23;3.13;;;;;;;16.59;100.00;100731.38;6136074;28;20032;-64
2023/10/11 00:30:36;;;;;;;7.47;3.30;;;;;;;16.62;100.00;100725.66;6125776;28;20028;-65
2023/10/11 00:33:32;;;;;;;18.42;3.30;;;;;;;16.70;100.00;100735.44;6134766;28;20115;-65
2023/10/11 00:36:29;;;;;;;10.65;3.08;;;;;;;16.57;100.00;100720.03;6132510;28;20417;-65
2023/10/11 00:39:25;;;;;;;10.73;3.33;;;;;;;16.59;100.00;100715.31;6127029;28;20071;-65
2023/10/11 00:42:21;;;;;;;9.43;3.33;;;;;;;16.53;100.00;100708.00;6127191;28;20364;-64
2023/10/11 00:45:17;;;;;;;9.57;3.28;;;;;;;16.44;100.00;100702.91;6123971;28;20029;-65
2023/10/11 00:48:14;;;;;;;9.38;3.22;;;;;;;16.51;100.00;100711.84;6128062;28;20036;-65
2023/10/11 00:51:10;;;;;;;13.18;3.22;;;;;;;16.51;100.00;100711.84;6132301;28;20032;-65
2023/10/11 00:54:06;;;;;;;7.15;3.22;;;;;;;16.46;100.00;100692.84;6129700;28;20067;-65
2023/10/11 00:57:02;;;;;;;8.90;3.30;;;;;;;16.36;100.00;100679.72;6105666;28;20023;-65
2023/10/11 00:59:57;;;;;;;8.00;2.90;;;;;;;16.20;100.00;100660.34;6106918;28;20062;-66
2023/10/11 01:02:54;;;;;;;7.53;3.20;;;;;;;16.32;100.00;100677.59;6131315;28;20044;-65
2023/10/11 01:05:50;;;;;;;11.25;2.88;;;;;;;16.28;100.00;100674.47;6125697;28;20475;-64
2023/10/11 01:08:48;;;;;;;8.77;2.70;;;;;;;16.33;100.00;100673.94;6127146;28;20032;-64
2023/10/11 01:11:46;;;;;;;7.55;3.17;;;;;;;16.39;100.00;100671.31;6132401;28;20225;-65
2023/10/11 01:14:56;;;;;;;7.28;3.28;;;;;;;16.49;100.00;100676.41;6129332;28;20037;-65
2023/10/11 01:17:54;;;;;;;8.38;2.83;;;;;;;16.38;100.00;100671.53;6116847;28;20036;-64
2023/10/11 01:20:51;;;;;;;9.60;3.30;;;;;;;16.33;100.00;100658.69;6129786;28;20032;-65
2023/10/11 01:23:46;;;;;;;8.82;2.90;;;;;;;16.31;100.00;100682.13;6134812;28;20119;-65
2023/10/11 01:26:42;;;;;;;10.23;3.03;;;;;;;16.24;100.00;100680.38;6129193;28;20032;-65
2023/10/11 01:29:37;;;;;;;8.40;3.38;;;;;;;16.12;100.00;100671.94;6126897;28;20520;-65
2023/10/11 01:32:41;;;;;;;7.63;2.80;;;;;;;16.26;100.00;100668.47;6129462;28;20082;-64
2023/10/11 01:35:38;;;;;;;7.40;2.60;;;;;;;16.24;100.00;100669.66;6126964;28;20516;-65
2023/10/11 01:38:45;;;;;;;8.75;3.17;;;;;;;16.32;100.00;100666.91;6128459;28;20033;-65
2023/10/11 01:41:42;;;;;;;7.28;2.75;;;;;;;16.28;100.00;100665.63;6107171;28;20079;-65
2023/10/11 01:44:38;;;;;;;9.20;3.17;;;;;;;16.20;100.00;100658.50;6129378;28;20128;-65
2023/10/11 01:47:34;;;;;;;8.65;3.25;;;;;;;16.07;100.00;100650.28;6127445;28;20082;-66
2023/10/11 01:50:29;;;;;;;10.65;3.50;;;;;;;16.10;100.00;100663.28;6135700;28;20037;-65
2023/10/11 01:53:27;;;;;;;7.87;3.00;;;;;;;16.05;100.00;100661.16;6129888;28;20024;-65
2023/10/11 01:56:25;;;;;;;10.15;2.78;;;;;;;16.11;100.00;100659.59;6127223;28;20039;-65
2023/10/11 01:59:21;;;;;;;7.30;3.00;;;;;;;15.97;100.00;100639.84;6126193;28;20035;-65
2023/10/11 02:02:16;;;;;;;7.90;3.10;;;;;;;15.95;100.00;100633.03;6127748;28;20032;-65
2023/10/11 02:05:12;;;;;;;5.73;2.50;;;;;;;15.94;100.00;100637.53;6124479;28;20016;-65
2023/10/11 02:08:11;;;;;;;9.45;2.88;;;;;;;16.05;100.00;100638.94;6128540;28;20086;-65
2023/10/11 02:11:07;;;;;;;6.85;2.72;;;;;;;16.05;100.00;100626.38;6128558;28;20082;-65
2023/10/11 02:14:03;;;;;;;11.33;3.00;;;;;;;16.05;100.00;100638.94;6134062;28;20025;-65
2023/10/11 02:16:59;;;;;;;8.40;2.80;;;;;;;16.06;100.00;100627.22;6134400;28;20028;-66
2023/10/11 02:19:54;;;;;;;6.78;3.15;;;;;;;16.11;99.54;100637.38;6127911;28;20032;-65
2023/10/11 02:22:55;;;;;;;6.97;2.50;;;;;;;16.16;98.17;100621.59;6125505;28;20031;-65
2023/10/11 02:25:51;;;;;;;8.48;2.70;;;;;;;16.31;96.70;100639.28;6115863;28;20513;-65
2023/10/11 02:28:48;;;;;;;8.70;2.97;;;;;;;16.23;96.87;100636.72;6133995;28;20035;-66
2023/10/11 02:31:43;;;;;;;10.65;3.08;;;;;;;16.24;96.31;100641.06;6130889;28;20020;-66
2023/10/11 02:34:41;;;;;;;7.45;2.83;;;;;;;16.22;96.77;100645.78;6126656;28;20081;-66
2023/10/11 02:37:37;;;;;;;7.18;2.65;;;;;;;16.15;96.41;100623.44;6123653;28;20079;-66
2023/10/11 02:40:37;;;;;;;10.77;3.10;;;;;;;16.18;95.56;100633.75;6121284;28;20028;-66
2023/10/11 02:43:33;;;;;;;10.05;3.38;;;;;;;16.37;93.54;100632.38;6124713;28;20480;-65
2023/10/11 02:46:33;;;;;;;12.32;3.15;;;;;;;16.44;92.02;100633.31;6129061;28;20423;-65
2023/10/11 02:49:31;;;;;;;6.10;2.58;;;;;;;16.46;91.46;100626.75;6126344;28;20394;-65
2023/10/11 02:52:35;;;;;;;8.88;2.78;;;;;;;16.58;90.43;100636.00;6125257;28;20029;-65
2023/10/11 02:55:31;;;;;;;8.48;2.65;;;;;;;16.59;89.24;100632.31;6108339;28;20044;-65
2023/10/11 02:58:27;;;;;;;7.13;2.67;;;;;;;16.73;88.59;100648.53;6122608;28;20043;-66
2023/10/11 03:01:22;;;;;;;8.10;2.80;;;;;;;16.67;88.23;100624.16;6129138;28;20060;-65
2023/10/11 03:04:17;;;;;;;9.40;3.27;;;;;;;16.79;87.70;100637.91;6131043;28;20107;-64
2023/10/11 03:07:21;;;;;;;5.80;2.27;;;;;;;16.70;88.60;100638.19;6129889;28;20041;-66
2023/10/11 03:10:18;;;;;;;9.02;2.60;;;;;;;16.62;88.96;100639.97;6104122;28;20037;-65
2023/10/11 03:13:29;;;;;;;9.48;3.42;;;;;;;16.72;87.74;100636.16;6125005;28;20467;-65
2023/10/11 03:16:24;;;;;;;7.40;2.90;;;;;;;16.75;87.09;100631.25;6127804;28;20487;-67
2023/10/11 03:19:19;;;;;;;6.90;3.00;;;;;;;16.77;87.37;100634.56;6128146;28;20082;-67
2023/10/11 03:22:19;;;;;;;7.40;2.70;;;;;;;16.73;87.67;100625.25;6129936;28;20027;-67
2023/10/11 03:25:18;;;;;;;9.07;3.10;;;;;;;16.66;88.47;100627.84;6131491;28;20383;-67
2023/10/11 03:28:15;;;;;;;7.53;3.00;;;;;;;16.67;87.38;100616.13;6127477;28;20020;-67
2023/10/11 03:31:12;;;;;;;6.75;2.20;;;;;;;16.70;87.50;100603.38;6129784;28;20452;-67
2023/10/11 03:34:11;;;;;;;6.82;2.40;;;;;;;16.64;87.51;100605.78;6127514;28;20035;-67
2023/10/11 03:37:10;;;;;;;6.50;2.53;;;;;;;16.62;87.66;100599.81;6113348;28;20040;-67
2023/10/11 03:40:26;;;;;;;5.47;2.35;;;;;;;16.60;87.09;100601.81;6127590;28;20147;-67
2023/10/11 03:43:24;;;;;;;7.75;2.88;;;;;;;16.71;87.24;100610.41;6131172;28;20497;-67
2023/10/11 03:46:28;;;;;;;;;;;;;;;16.69;87.69;100615.13;6135411;28;20035;-68
2023/10/11 03:52:22;;;;;;;11.27;2.60;;;;;;;16.62;86.71;100588.25;6132277;28;20024;-68
2023/10/11 03:55:17;;;;;;;7.43;3.10;;;;;;;16.61;86.69;100592.78;6137886;28;20025;-67
2023/10/11 03:58:32;;;;;;;9.30;2.40;;;;;;;16.69;86.61;100607.91;6137392;28;20024;-68
2023/10/11 04:01:36;;;;;;;9.07;2.78;;;;;;;16.70;87.34;100606.06;6108481;28;20111;-65
2023/10/11 04:04:31;;;;;;;9.48;2.67;;;;;;;16.41;89.44;100586.34;6125975;28;20036;-67
2023/10/11 04:07:31;;;;;;;10.30;2.97;;;;;;;16.29;91.63;100598.53;6126647;28;20618;-67
2023/10/11 04:10:38;;;;;;;9.00;2.70;;;;;;;16.19;93.17;100587.28;6130715;28;20054;-65
2023/10/11 04:13:37;;;;;;;14.23;4.13;;;;;;;16.13;93.91;100590.69;6127359;28;20047;-66
2023/10/11 04:16:33;;;;;;;9.57;3.05;;;;;;;16.12;93.77;100583.66;6124642;28;20029;-66
2023/10/11 04:19:31;;;;;;;8.63;3.13;;;;;;;16.10;93.75;100593.72;6129136;28;20035;-64
2023/10/11 04:22:31;;;;;;;9.75;2.90;;;;;;;16.00;94.10;100586.00;6132866;28;20104;-67
2023/10/11 04:25:26;;;;;;;6.32;2.75;;;;;;;16.00;95.04;100593.19;6128877;28;20106;-67
2023/10/11 04:28:23;;;;;;;8.30;2.77;;;;;;;16.00;95.23;100595.84;6137675;28;20044;-67
2023/10/11 04:31:30;;;;;;;8.82;3.00;;;;;;;16.00;94.52;100574.44;6135041;28;20028;-67
2023/10/11 04:34:32;;;;;;;8.13;2.75;;;;;;;16.04;94.49;100578.41;6132641;28;20036;-66
2023/10/11 04:37:27;;;;;;;6.65;3.05;;;;;;;16.02;94.62;100591.13;6128366;28;20036;-66
2023/10/11 04:40:33;;;;;;;8.80;3.13;;;;;;;15.97;95.56;100591.69;6126896;28;20118;-66
2023/10/11 04:43:29;;;;;;;11.50;3.70;;;;;;;15.93;95.65;100576.19;6133998;28;20262;-66
2023/10/11 04:46:30;;;;;;;10.15;3.13;;;;;;;15.90;96.01;100579.22;6131238;28;20550;-67
2023/10/11 04:49:30;;;;;;;10.10;4.20;;;;;;;15.94;95.54;100577.84;6134786;28;20107;-68
2023/10/11 04:52:35;;;;;;;9.23;2.90;;;;;;;16.01;95.13;100578.78;6133311;28;20032;-66
2023/10/11 04:55:34;;;;;;;9.10;3.08;;;;;;;15.96;96.39;100581.16;6130156;28;20028;-66
2023/10/11 04:58:41;;;;;;;7.07;2.85;;;;;;;15.90;97.14;100571.19;6123960;28;20071;-66
2023/10/11 05:01:58;;;;;;;16.55;5.20;;;;;;;15.89;97.31;100569.56;6133293;28;20067;-66
2023/10/11 05:04:54;;;;;;;10.85;4.32;;;;;;;15.88;97.41;100558.03;6116693;28;20471;-67
2023/10/11 05:08:01;;;;;;;13.23;4.60;;;;;;;15.95;97.64;100571.50;6125318;28;20032;-66
2023/10/11 05:11:02;;;;;;;11.70;3.97;;;;;;;16.09;96.54;100579.50;6137861;28;20113;-66
2023/10/11 05:13:59;;;;;;;13.73;4.55;;;;;;;16.15;95.62;100575.28;6129851;28;20111;-66
2023/10/11 05:16:59;;;;;;;13.10;4.38;;;;;;;16.24;94.90;100565.31;6126493;28;20391;-67
2023/10/11 05:23:05;;;;;;;9.70;3.80;;;;;;;16.37;93.95;100571.66;6135246;28;20050;-66
2023/10/11 05:26:16;;;;;;;12.15;4.22;;;;;;;16.39;94.41;100571.44;6127070;28;20044;-66
2023/10/11 05:29:24;;;;;;;12.52;5.03;;;;;;;16.40;94.20;100565.94;6129383;28;20051;-67
2023/10/11 05:32:23;;;;;;;12.50;4.45;;;;;;;16.43;94.50;100568.22;6127291;28;20032;-67
2023/10/11 05:35:24;;;;;;;11.90;4.13;;;;;;;16.36;94.40;100556.59;6128929;28;20029;-67
2023/10/11 05:51:19;;;;;;;12.55;4.72;;;;;;;16.19;97.10;100541.78;6133635;28;20719;-67
2023/10/11 05:54:15;;;;;;;14.38;4.53;;;;;;;16.26;97.61;100557.91;6131376;28;20475;-66
2023/10/11 05:57:13;;;;;;;13.27;5.05;;;;;;;16.17;97.97;100534.97;6129279;28;20040;-65
2023/10/11 06:00:22;;;;;;;11.07;4.13;;;;;;;16.22;97.08;100522.69;6131885;28;20498;-67
2023/10/11 06:03:17;;;;;;;13.02;4.05;;;;;;;16.32;96.62;100546.47;6118922;28;20046;-67
2023/10/11 06:06:26;;;;;;;14.52;3.90;;;;;;;16.32;96.77;100541.09;6128232;28;20032;-66
2023/10/11 06:09:26;;;;;;;14.20;4.45;;;;;;;16.22;97.39;100538.75;6130991;28;20146;-66
2023/10/11 06:12:26;;;;;;;13.27;3.85;;;;;;;16.26;96.49;100534.66;6128401;28;20032;-67
2023/10/11 06:15:23;;;;;;;11.93;4.13;;;;;;;16.37;96.29;100554.75;6131152;28;20392;-66
2023/10/11 06:18:39;;;;;;;13.15;3.75;;;;;;;16.23;97.23;100535.03;6133704;28;20039;-66
2023/10/11 06:21:34;;;;;;;10.48;2.92;;;;;;;16.40;94.66;100541.00;6130928;28;20054;-66
2023/10/11 06:24:32;;;;;;;8.47;3.07;;;;;;;16.54;92.10;100532.97;6124421;28;20051;-66
2023/10/11 06:30:42;;;;;;;5.88;2.47;;;;;;;16.71;88.58;100511.31;6130183;28;20052;-66
2023/10/11 06:33:44;;;;;;;9.07;2.55;;;;;;;16.98;86.06;100534.66;6123731;28;20021;-67
2023/10/11 06:36:39;;;;;;;10.45;2.60;;;;;;;17.18;84.45;100544.53;6128841;28;20495;-68
2023/10/11 06:42:36;;;;;;;7.47;2.65;;;;;;;17.18;84.01;100549.06;6125243;28;20071;-68
2023/10/11 06:45:33;;;;;;;9.32;2.72;;;;;;;17.30;83.37;100546.69;6125520;28;20221;-67
2023/10/11 06:48:29;;;;;;;10.43;2.65;;;;;;;17.33;82.04;100536.41;6134793;28;20037;-66
2023/10/11 06:51:24;;;;;;;8.27;2.63;;;;;;;17.39;82.43;100538.34;6120495;28;20689;-67
2023/10/11 06:54:23;;;;;;;6.37;2.67;;;;;;;17.41;82.02;100530.09;6135083;28;20032;-67
2023/10/11 06:57:21;;;;;;;12.23;2.92;;;;;;;17.52;81.25;100533.06;6126484;28;20103;-66
2023/10/11 07:00:37;;;;;;;8.52;3.05;;;;;;;17.63;80.59;100545.97;6136354;28;20071;-67
2023/10/11 07:03:38;;;;;;;8.05;2.60;;;;;;;17.76;79.98;100547.91;6111430;28;20024;-68
2023/10/11 07:06:35;;;;;;;5.55;2.30;;;;;;;17.79;78.80;100547.50;6130169;28;20040;-67
2023/10/11 07:09:32;;;;;;;8.23;2.50;;;;;;;17.80;79.97;100541.94;6128912;28;20025;-68
2023/10/11 07:12:39;;;;;;;7.25;2.72;;;;;;;17.87;79.23;100562.63;6124250;28;20041;-68
2023/10/11 07:15:45;;;;;;;7.60;2.50;;;;;;;17.99;79.18;100563.75;6119185;28;20105;-68
2023/10/11 07:18:43;;;;;;;9.32;2.67;;;;;;;18.06;79.19;100557.38;6121962;28;20099;-67
2023/10/11 07:24:43;;;;;;;9.20;2.88;;;;;;;18.20;77.33;100558.28;6125849;28;20043;-66
2023/10/11 07:27:38;;;;;;;7.40;2.60;;;;;;;18.12;77.56;100551.22;6130577;28;20460;-68
2023/10/11 07:30:37;;;;;;;8.90;2.80;;;;;;;18.13;77.87;100549.34;6129396;28;20033;-66
2023/10/11 07:33:36;;;;;;;7.22;2.75;;;;;;;18.13;77.86;100546.66;6123533;28;20032;-68
2023/10/11 07:36:38;;;;;;;5.68;2.40;;;;;;;18.05;78.19;100541.44;6128615;28;20399;-66
2023/10/11 07:39:34;;;;;;;7.78;2.92;;;;;;;18.18;78.40;100560.34;6124463;28;20047;-68
2023/10/11 07:42:37;;;;;;;8.87;2.60;;;;;;;18.21;77.85;100549.16;6128744;28;20052;-68
2023/10/11 07:45:34;;;;;;;7.18;2.85;;;;;;;18.19;78.28;100551.22;6124453;28;20787;-66
2023/10/11 07:48:32;;;;;;;9.88;3.20;;;;;;;18.34;76.79;100568.03;6129885;28;20491;-67
2023/10/11 07:51:35;;;;;;;8.13;2.75;;;;;;;18.48;77.44;100575.13;6125751;28;20071;-67
2023/10/11 07:54:32;;;;;;;8.15;2.50;;;;;;;18.60;76.67;100576.22;6124109;28;20036;-68
2023/10/11 07:57:27;;;;;;;7.50;3.08;;;;;;;18.67;76.58;100560.94;6119608;28;20032;-65
2023/10/11 08:00:23;;;;;;;9.63;3.10;;;;;;;18.61;75.53;100550.19;6121573;28;20460;-66
2023/10/11 08:03:18;;;;;;;6.67;2.43;;;;;;;18.70;75.68;100559.72;6120330;28;20078;-66
2023/10/11 08:06:14;;;;;;;8.00;2.90;;;;;;;18.66;75.42;100553.94;6122888;28;20040;-65
2023/10/11 08:09:17;;;;;;;6.35;2.60;;;;;;;18.83;75.51;100559.78;6103857;28;20028;-65
2023/10/11 08:12:18;;;;;;;6.80;2.30;;;;;;;19.13;74.40;100554.88;6125764;28;20024;-66
2023/10/11 08:15:14;;;;;;;9.52;3.00;;;;;;;19.37;73.17;100548.88;6132407;28;20028;-65
2023/10/11 08:18:10;;;;;;;6.72;2.80;;;;;;;19.57;70.97;100557.78;6127736;28;20081;-65
2023/10/11 08:21:05;;;;;;;11.27;2.90;;;;;;;19.50;72.22;100544.34;6134934;28;20044;-66
2023/10/11 08:24:06;;;;;;;5.97;2.60;;;;;;;19.54;70.76;100547.47;6133715;28;20316;-65
2023/10/11 08:27:07;;;;;;;11.13;2.80;;;;;;;19.82;69.82;100544.50;6132722;28;20024;-65
2023/10/11 08:30:16;;;;;;;8.25;2.72;;;;;;;19.77;68.87;100541.63;6134188;28;20036;-65
2023/10/11 08:33:12;;;;;;;8.55;3.10;;;;;;;19.77;70.03;100547.00;6136571;28;20032;-66
2023/10/11 08:36:10;;;;;;;7.43;3.20;;;;;;;19.83;68.37;100541.63;6138208;28;20042;-65
2023/10/11 08:39:13;;;;;;;7.82;2.92;;;;;;;19.76;68.49;100519.25;6132596;28;20036;-65
2023/10/11 08:42:11;;;;;;;11.40;2.90;;;;;;;19.82;68.36;100537.25;6126224;28;20032;-65
2023/10/11 08:45:09;;;;;;;8.75;3.10;;;;;;;19.99;67.84;100525.00;6131040;28;20043;-66
2023/10/11 08:48:05;;;;;;;7.72;2.83;;;;;;;20.16;66.66;100522.69;6104475;28;20032;-65
2023/10/11 08:51:02;;;;;;;8.25;2.67;;;;;;;20.27;65.21;100537.38;6130618;28;20184;-65
2023/10/11 08:54:00;;;;;;;8.57;2.83;;;;;;;20.58;65.12;100535.56;6125866;28;20037;-65
2023/10/11 08:56:57;;;;;;;7.43;2.60;;;;;;;20.69;64.55;100525.97;6131145;28;20119;-66
2023/10/11 08:59:59;;;;;;;5.88;2.85;;;;;;;20.64;64.12;100531.19;6130282;28;20032;-66
2023/10/11 09:03:19;;;;;;;7.07;2.88;;;;;;;20.52;64.91;100519.44;6130456;28;20041;-65
2023/10/11 09:06:22;;;;;;;8.88;3.10;;;;;;;20.56;63.56;100532.25;6111621;28;20113;-65
2023/10/11 09:09:40;;;;;;;8.77;3.20;;;;;;;20.40;63.21;100545.41;6126435;28;20509;-65
2023/10/11 09:12:43;;;;;;;6.60;3.50;;;;;;;20.28;64.41;100541.69;6133367;28;20040;-65
2023/10/11 09:15:45;;;;;;;8.88;2.80;;;;;;;20.31;63.72;100560.13;6128566;28;20505;-65
2023/10/11 09:18:46;;;;;;;6.25;2.95;;;;;;;20.41;63.88;100555.94;6126382;28;20051;-66
2023/10/11 09:21:42;;;;;;;8.57;3.08;;;;;;;20.52;63.71;100551.78;6124551;28;20060;-67
2023/10/11 09:24:39;;;;;;;7.47;2.42;;;;;;;20.73;62.65;100554.97;6126625;28;20040;-66
2023/10/11 09:27:50;;;;;;;8.50;3.00;;;;;;;20.80;61.97;100554.94;6128642;28;20392;-66
2023/10/11 09:30:45;;;;;;;9.68;3.05;;;;;;;20.77;60.80;100544.56;6120728;28;20102;-66
2023/10/11 09:33:50;;;;;;;7.20;2.70;;;;;;;20.65;61.15;100535.53;6130192;28;20040;-66
2023/10/11 09:36:46;;;;;;;8.50;2.95;;;;;;;20.60;62.44;100548.84;6123557;28;20067;-66
2023/10/11 09:39:44;;;;;;;6.90;2.63;;;;;;;20.69;61.97;100542.13;6127312;28;20029;-67
2023/10/11 09:42:43;;;;;;;8.90;2.88;;;;;;;20.36;61.79;100515.34;6138537;28;20466;-65
2023/10/11 09:45:53;;;;;;;9.18;2.78;;;;;;;20.72;63.11;100541.69;6105765;28;20055;-67
2023/10/11 09:48:49;;;;;;;7.97;2.72;;;;;;;20.80;61.16;100538.75;6126659;28;20039;-66
2023/10/11 09:51:44;;;;;;;7.18;2.70;;;;;;;20.89;61.13;100526.69;6137488;28;20486;-66
2023/10/11 09:54:39;;;;;;;12.57;3.35;;;;;;;20.99;60.99;100540.50;6107327;28;20028;-66
2023/10/11 09:57:42;;;;;;;7.43;2.80;;;;;;;21.03;62.49;100533.63;6105252;28;20542;-66
2023/10/11 10:00:48;;;;;;;5.88;2.42;;;;;;;20.96;61.36;100543.63;6105061;28;20028;-66
2023/10/11 10:03:47;;;;;;;7.00;2.97;;;;;;;20.83;61.59;100527.53;6107176;28;20403;-66
2023/10/11 10:07:12;;;;;;;6.68;2.40;;;;;;;20.84;62.98;100537.28;6115969;28;20079;-67
2023/10/11 10:10:12;;;;;;;8.50;2.58;;;;;;;20.84;61.50;100534.59;6130120;28;20499;-66
2023/10/11 10:13:09;;;;;;;8.23;2.58;;;;;;;20.95;61.46;100533.91;6135921;28;20085;-68
2023/10/11 10:16:04;;;;;;;6.70;2.70;;;;;;;21.15;60.00;100531.91;6127472;28;20074;-66
2023/10/11 10:19:24;;;;;;;11.63;3.13;;;;;;;21.28;59.02;100526.41;6138516;28;20119;-66
2023/10/11 10:22:22;;;;;;;8.95;2.80;;;;;;;21.39;58.76;100532.16;6137246;28;20028;-67
2023/10/11 10:25:18;;;;;;;8.02;2.63;;;;;;;21.55;59.17;100523.47;6135126;28;20471;-66
2023/10/11 10:28:35;;;;;;;9.32;3.00;;;;;;;21.73;57.52;100523.50;6132204;28;20036;-65
2023/10/11 10:31:33;;;;;;;6.53;2.50;;;;;;;21.86;57.56;100518.81;6132656;28;20396;-66
2023/10/11 10:34:29;;;;;;;8.18;2.97;;;;;;;21.93;56.69;100513.38;6114753;28;20044;-66
2023/10/11 10:37:56;;;;;;;11.75;3.13;;;;;;;21.89;57.39;100523.78;6122349;28;20062;-66
2023/10/11 10:41:22;;;;;;;6.15;3.00;;;;;;;22.08;56.16;100521.91;6118752;28;20028;-66
2023/10/11 10:44:18;;;;;;;9.55;3.33;;;;;;;22.14;56.37;100488.59;6119337;28;20033;-66
2023/10/11 10:47:20;;;;;;;9.13;3.23;;;;;;;22.13;57.01;100496.91;6127044;28;20051;-66
2023/10/11 10:50:21;;;;;;;11.98;2.83;;;;;;;22.15;56.00;100516.44;6126908;28;20036;-66
2023/10/11 10:53:17;;;;;;;9.27;2.80;;;;;;;22.13;56.56;100488.78;6105029;28;20075;-66
2023/10/11 10:56:19;;;;;;;8.35;2.85;;;;;;;22.16;56.75;100491.88;6132867;28;20036;-66
2023/10/11 10:59:20;;;;;;;7.65;2.50;;;;;;;22.22;55.53;100504.50;6121970;28;20090;-66
2023/10/11 11:02:19;;;;;;;8.77;2.63;;;;;;;22.22;56.28;100492.84;6127839;28;20035;-66
2023/10/11 11:05:15;;;;;;;7.75;3.03;;;;;;;22.13;55.98;100478.81;6126157;28;20089;-65
2023/10/11 11:08:23;;;;;;;6.05;2.38;;;;;;;22.15;55.69;100506.44;6127912;28;20032;-66
2023/10/11 11:11:34;;;;;;;10.23;2.55;;;;;;;22.06;56.59;100491.59;6129753;28;20029;-66
2023/10/11 11:14:29;;;;;;;14.73;3.38;;;;;;;22.14;56.19;100504.78;6121429;28;20490;-65
2023/10/11 11:17:46;;;;;;;6.30;2.55;;;;;;;22.31;56.39;100502.31;6120369;28;20033;-66
2023/10/11 11:20:42;;;;;;;9.45;3.03;;;;;;;22.35;55.74;100496.22;6126754;28;20033;-65
2023/10/11 11:23:37;;;;;;;10.55;2.70;;;;;;;22.42;57.04;100464.50;6127028;28;20553;-65
2023/10/11 11:26:33;;;;;;;6.47;2.60;;;;;;;22.64;57.48;100482.97;6108309;28;20036;-66
2023/10/11 11:29:33;;;;;;;13.43;3.40;;;;;;;22.58;56.74;100462.22;6134075;28;20032;-66
2023/10/11 11:32:41;;;;;;;9.50;2.70;;;;;;;22.45;57.10;100471.31;6130908;28;20020;-66
2023/10/11 11:35:46;;;;;;;8.85;2.88;;;;;;;22.68;58.62;100465.22;6117620;28;20095;-66
2023/10/11 11:38:48;;;;;;;8.38;2.78;;;;;;;22.68;57.47;100467.91;6124946;28;20086;-66
2023/10/11 11:41:47;;;;;;;7.90;2.80;;;;;;;22.70;56.67;100480.16;6128190;28;20534;-66
2023/10/11 11:44:43;;;;;;;5.72;2.30;;;;;;;22.67;55.93;100471.66;6128209;28;20048;-66
2023/10/11 11:47:38;;;;;;;11.30;3.15;;;;;;;22.60;56.23;100471.75;6127749;28;20036;-66
2023/10/11 11:50:34;;;;;;;10.77;3.20;;;;;;;22.53;56.99;100471.81;6137703;28;20036;-66
2023/10/11 11:53:30;;;;;;;7.38;2.65;;;;;;;22.50;58.17;100466.88;6128151;28;20050;-66
2023/10/11 11:56:27;;;;;;;8.50;2.97;;;;;;;22.69;57.19;100467.69;6131733;28;20028;-66
2023/10/11 11:59:23;;;;;;;5.72;2.90;;;;;;;22.76;57.54;100475.69;6128221;28;20372;-66
2023/10/11 12:02:19;;;;;;;7.55;2.92;;;;;;;22.80;57.66;100472.28;6122751;28;20111;-65
2023/10/11 12:05:14;;;;;;;14.30;2.77;;;;;;;22.70;58.03;100472.03;6132275;28;20032;-66
2023/10/11 12:08:20;;;;;;;9.15;3.35;;;;;;;22.71;60.16;100479.09;6124754;28;20051;-66
2023/10/11 12:11:15;;;;;;;15.05;2.88;;;;;;;22.74;58.82;100478.66;6134948;28;20476;-67
2023/10/11 12:14:12;;;;;;;9.00;3.00;;;;;;;22.91;59.35;100470.69;6135817;28;20035;-66
2023/10/11 12:17:10;;;;;;;9.00;2.92;;;;;;;22.97;58.38;100458.91;6132039;28;20273;-66
2023/10/11 12:20:12;;;;;;;10.55;2.78;;;;;;;22.81;57.47;100457.72;6136890;28;20032;-66
2023/10/11 12:23:07;;;;;;;10.50;2.95;;;;;;;;;;6128544;28;20040;-67
2023/10/11 12:26:04;;;;;;;7.60;2.70;;;;;;;22.92;57.92;100475.03;6136118;28;20029;-66
2023/10/11 12:29:03;;;;;;;12.60;2.53;;;;;;;22.75;59.82;100463.22;6124398;28;20515;-66
2023/10/11 12:32:01;;;;;;;;;;;;;;;22.81;59.18;100478.53;6124619;28;20025;-66
2023/10/11 12:34:56;;;;;;;10.65;2.90;;;;;;;22.70;59.14;100476.63;6129360;28;19913;-66
2023/10/11 12:37:51;;;;;;;10.37;2.57;;;;;;;22.66;59.59;100470.03;6137831;28;20032;-65
2023/10/11 12:40:47;;;;;;;11.47;3.03;;;;;;;22.73;60.39;100476.16;6133720;28;20266;-66
2023/10/11 12:43:45;;;;;;;13.30;2.95;;;;;;;22.66;58.94;100470.03;6131480;28;20029;-66
2023/10/11 12:46:40;;;;;;;13.02;3.28;;;;;;;22.86;59.73;100481.34;6138707;28;20486;-66
2023/10/11 12:49:36;;;;;;;10.93;3.05;;;;;;;22.87;59.42;100485.72;6132420;28;20032;-66
2023/10/11 12:52:32;;;;;;;13.57;2.80;;;;;;;22.97;60.77;100478.69;6136720;28;20034;-66
2023/10/11 12:55:27;;;;;;;6.68;2.53;;;;;;;;;;6106448;28;20395;-66
2023/10/11 12:58:27;;;;;;;14.30;3.00;;;;;;;22.98;62.31;100495.75;6135676;28;20040;-67
2023/10/11 13:01:42;;;;;;;8.98;2.92;;;;;;;22.87;63.43;100480.31;6121972;28;20282;-66
2023/10/11 13:04:41;;;;;;;8.05;3.15;;;;;;;22.67;62.63;100468.97;6128187;28;20028;-66
2023/10/11 13:07:37;;;;;;;8.35;3.17;;;;;;;22.54;63.67;100468.09;6105392;28;20040;-67
2023/10/11 13:10:35;;;;;;;9.93;3.25;;;;;;;22.50;65.08;100469.59;6132530;28;20092;-66
2023/10/11 13:13:32;;;;;;;13.98;3.20;;;;;;;22.41;64.67;100457.47;6106955;28;20024;-66
2023/10/11 13:16:27;;;;;;;8.65;3.35;;;;;;;22.35;64.79;100450.25;6139431;28;20025;-67
2023/10/11 13:19:24;;;;;;;8.57;2.80;;;;;;;22.29;65.31;100437.66;6130762;28;20048;-67
2023/10/11 13:22:19;;;;;;;9.07;3.05;;;;;;;22.25;66.39;100444.59;6121588;28;20024;-66
2023/10/11 13:25:25;;;;;;;10.43;3.10;;;;;;;22.24;64.54;100451.03;6135501;28;20063;-66
2023/10/11 13:28:21;;;;;;;7.82;3.00;;;;;;;22.13;65.40;100441.00;6130577;28;20345;-66
2023/10/11 13:31:17;;;;;;;10.48;2.85;;;;;;;22.15;65.51;100441.59;6126031;28;20036;-66
2023/10/11 13:34:14;;;;;;;7.90;2.70;;;;;;;22.10;67.44;100438.75;6121719;28;20503;-66
2023/10/11 13:37:11;;;;;;;13.15;3.08;;;;;;;22.09;67.53;100429.03;6118842;28;20464;-67
2023/10/11 13:40:07;;;;;;;12.27;3.35;;;;;;;22.00;66.90;100416.88;6121655;28;20039;-66
2023/10/11 13:43:04;;;;;;;8.38;2.65;;;;;;;21.97;67.93;100400.28;6119339;28;20028;-67
2023/10/11 13:46:06;;;;;;;12.85;2.70;;;;;;;22.08;66.62;100392.25;6118105;28;20033;-66
2023/10/11 13:49:20;;;;;;;9.73;3.00;;;;;;;22.12;67.51;100396.16;6118235;28;20036;-66
2023/10/11 13:52:19;;;;;;;10.70;3.25;;;;;;;22.16;64.97;100381.13;6129057;28;20039;-66
2023/10/11 13:55:14;;;;;;;8.75;2.85;;;;;;;22.14;68.38;100393.22;6130296;28;20402;-67
2023/10/11 13:58:10;;;;;;;8.60;3.25;;;;;;;22.03;67.49;100389.41;6129158;28;20024;-66
2023/10/11 14:01:31;;;;;;;11.20;2.70;;;;;;;22.12;69.25;100404.25;6125056;28;20052;-66
2023/10/11 14:07:48;;;;;;;13.00;3.40;;;;;;;21.92;68.51;100425.28;6132545;28;20438;-66
2023/10/11 14:10:46;;;;;;;5.30;2.58;;;;;;;21.83;69.03;100432.00;6126540;28;20063;-66
2023/10/11 14:13:48;;;;;;;11.80;3.25;;;;;;;21.77;69.60;100438.28;6100020;28;20435;-66
2023/10/11 14:16:44;;;;;;;11.00;3.00;;;;;;;21.85;70.40;100432.63;6124965;28;20036;-65
2023/10/11 14:19:39;;;;;;;12.23;2.72;;;;;;;21.88;70.96;100434.88;6134234;28;20082;-67
2023/10/11 14:22:34;;;;;;;10.10;3.00;;;;;;;21.81;71.89;100439.50;6129105;28;20135;-67